sensor_id;sensor_type;location;lat;lon;timestamp;temperature;humidity
53876;DHT22;39789;53.216;5.624;2023-04-15T00:01:29;6.30;99.90
53876;DHT22;39789;53.216;5.624;2023-04-15T00:03:58;6.30;99.90
53876;DHT22;39789;53.216;5.624;2023-04-15T00:06:23;6.20;99.90
53876;DHT22;39789;53.216;5.624;2023-04-15T00:08:52;6.20;99.90
53876;DHT22;39789;53.216;5.624;2023-04-15T00:11:18;6.30;99.90
53876;DHT22;39789;53.216;5.624;2023-04-15T00:13:44;6.20;99.90
53876;DHT22;39789;53.216;5.624;2023-04-15T00:16:10;6.10;99.90
53876;DHT22;39789;53.216;5.624;2023-04-15T00:18:36;6.10;99.90
53876;DHT22;39789;53.216;5.624;2023-04-15T00:21:04;6.20;99.90
53876;DHT22;39789;53.216;5.624;2023-04-15T00:23:29;6.10;99.90
53876;DHT22;39789;53.216;5.624;2023-04-15T00:25:55;6.10;99.90
53876;DHT22;39789;53.216;5.624;2023-04-15T00:28:21;6.10;99.90
53876;DHT22;39789;53.216;5.624;2023-04-15T00:30:47;6.10;99.90
53876;DHT22;39789;53.216;5.624;2023-04-15T00:33:13;6.00;99.90
53876;DHT22;39789;53.216;5.624;2023-04-15T00:35:39;6.00;99.90
53876;DHT22;39789;53.216;5.624;2023-04-15T00:38:05;6.00;99.90
53876;DHT22;39789;53.216;5.624;2023-04-15T00:40:34;6.00;99.90
53876;DHT22;39789;53.216;5.624;2023-04-15T00:43:00;6.00;99.90
53876;DHT22;39789;53.216;5.624;2023-04-15T00:45:25;6.00;99.90
53876;DHT22;39789;53.216;5.624;2023-04-15T00:47:52;6.60;99.90
53876;DHT22;39789;53.216;5.624;2023-04-15T00:50:18;6.00;99.90
53876;DHT22;39789;53.216;5.624;2023-04-15T00:52:44;6.00;99.90
53876;DHT22;39789;53.216;5.624;2023-04-15T00:55:09;6.00;99.90
53876;DHT22;39789;53.216;5.624;2023-04-15T00:57:36;5.90;99.90
53876;DHT22;39789;53.216;5.624;2023-04-15T01:00:02;5.90;99.90
53876;DHT22;39789;53.216;5.624;2023-04-15T01:02:30;5.90;99.90
53876;DHT22;39789;53.216;5.624;2023-04-15T01:04:56;5.90;99.90
53876;DHT22;39789;53.216;5.624;2023-04-15T01:07:21;5.90;99.90
53876;DHT22;39789;53.216;5.624;2023-04-15T01:09:47;5.90;99.90
53876;DHT22;39789;53.216;5.624;2023-04-15T01:12:14;5.90;99.90
53876;DHT22;39789;53.216;5.624;2023-04-15T01:14:42;5.90;99.90
53876;DHT22;39789;53.216;5.624;2023-04-15T01:17:08;5.80;99.90
53876;DHT22;39789;53.216;5.624;2023-04-15T01:19:35;5.80;99.90
53876;DHT22;39789;53.216;5.624;2023-04-15T01:22:02;5.80;99.90
53876;DHT22;39789;53.216;5.624;2023-04-15T01:24:29;5.80;99.90
53876;DHT22;39789;53.216;5.624;2023-04-15T01:26:56;5.80;99.90
53876;DHT22;39789;53.216;5.624;2023-04-15T01:29:23;5.90;99.90
53876;DHT22;39789;53.216;5.624;2023-04-15T01:31:50;5.90;99.90
53876;DHT22;39789;53.216;5.624;2023-04-15T01:34:16;5.90;99.90
53876;DHT22;39789;53.216;5.624;2023-04-15T01:36:42;5.90;99.90
53876;DHT22;39789;53.216;5.624;2023-04-15T01:39:07;5.90;99.90
53876;DHT22;39789;53.216;5.624;2023-04-15T01:41:33;5.90;99.90
53876;DHT22;39789;53.216;5.624;2023-04-15T01:43:58;5.80;99.90
53876;DHT22;39789;53.216;5.624;2023-04-15T01:46:24;5.80;99.90
53876;DHT22;39789;53.216;5.624;2023-04-15T01:48:50;5.70;99.90
53876;DHT22;39789;53.216;5.624;2023-04-15T01:51:15;5.60;99.90
53876;DHT22;39789;53.216;5.624;2023-04-15T01:53:41;5.70;99.90
53876;DHT22;39789;53.216;5.624;2023-04-15T01:56:07;5.70;99.90
53876;DHT22;39789;53.216;5.624;2023-04-15T01:58:33;5.60;99.90
53876;DHT22;39789;53.216;5.624;2023-04-15T02:00:59;5.60;99.90
53876;DHT22;39789;53.216;5.624;2023-04-15T02:03:25;5.60;99.90
53876;DHT22;39789;53.216;5.624;2023-04-15T02:05:50;5.60;99.90
53876;DHT22;39789;53.216;5.624;2023-04-15T02:08:16;5.60;99.90
53876;DHT22;39789;53.216;5.624;2023-04-15T02:10:42;5.60;99.90
53876;DHT22;39789;53.216;5.624;2023-04-15T02:13:08;5.60;99.90
53876;DHT22;39789;53.216;5.624;2023-04-15T02:15:34;5.70;99.90
53876;DHT22;39789;53.216;5.624;2023-04-15T02:17:59;5.70;99.90
53876;DHT22;39789;53.216;5.624;2023-04-15T02:20:25;5.70;99.90
53876;DHT22;39789;53.216;5.624;2023-04-15T02:22:51;5.70;99.90
53876;DHT22;39789;53.216;5.624;2023-04-15T02:25:16;5.70;99.90
53876;DHT22;39789;53.216;5.624;2023-04-15T02:27:42;5.70;99.90
53876;DHT22;39789;53.216;5.624;2023-04-15T02:30:09;5.70;99.90
53876;DHT22;39789;53.216;5.624;2023-04-15T02:32:35;5.60;99.90
53876;DHT22;39789;53.216;5.624;2023-04-15T02:35:06;5.60;99.90
53876;DHT22;39789;53.216;5.624;2023-04-15T02:37:34;5.60;99.90
53876;DHT22;39789;53.216;5.624;2023-04-15T02:40:06;5.60;99.90
53876;DHT22;39789;53.216;5.624;2023-04-15T02:42:32;5.50;99.90
53876;DHT22;39789;53.216;5.624;2023-04-15T02:44:58;5.50;99.90
53876;DHT22;39789;53.216;5.624;2023-04-15T02:47:23;5.50;99.90
53876;DHT22;39789;53.216;5.624;2023-04-15T02:49:49;5.50;99.90
53876;DHT22;39789;53.216;5.624;2023-04-15T02:52:15;5.50;99.90
53876;DHT22;39789;53.216;5.624;2023-04-15T02:54:40;5.50;99.90
53876;DHT22;39789;53.216;5.624;2023-04-15T02:57:06;5.50;99.90
53876;DHT22;39789;53.216;5.624;2023-04-15T02:59:32;5.50;99.90
53876;DHT22;39789;53.216;5.624;2023-04-15T03:01:57;5.50;99.90
53876;DHT22;39789;53.216;5.624;2023-04-15T03:04:26;5.50;99.90
53876;DHT22;39789;53.216;5.624;2023-04-15T03:06:54;5.50;99.90
53876;DHT22;39789;53.216;5.624;2023-04-15T03:09:20;5.50;99.90
53876;DHT22;39789;53.216;5.624;2023-04-15T03:11:46;5.60;99.90
53876;DHT22;39789;53.216;5.624;2023-04-15T03:14:11;5.50;99.90
53876;DHT22;39789;53.216;5.624;2023-04-15T03:16:37;5.50;99.90
53876;DHT22;39789;53.216;5.624;2023-04-15T03:19:04;5.50;99.90
53876;DHT22;39789;53.216;5.624;2023-04-15T03:21:31;5.50;99.90
53876;DHT22;39789;53.216;5.624;2023-04-15T03:23:57;5.50;99.90
53876;DHT22;39789;53.216;5.624;2023-04-15T03:26:28;5.50;99.90
53876;DHT22;39789;53.216;5.624;2023-04-15T03:28:55;5.50;99.90
53876;DHT22;39789;53.216;5.624;2023-04-15T03:31:20;5.50;99.90
53876;DHT22;39789;53.216;5.624;2023-04-15T03:33:46;5.40;99.90
53876;DHT22;39789;53.216;5.624;2023-04-15T03:36:12;5.40;99.90
53876;DHT22;39789;53.216;5.624;2023-04-15T03:38:37;5.40;99.90
53876;DHT22;39789;53.216;5.624;2023-04-15T03:41:03;5.40;99.90
53876;DHT22;39789;53.216;5.624;2023-04-15T03:43:29;5.40;99.90
53876;DHT22;39789;53.216;5.624;2023-04-15T03:45:55;5.40;99.90
53876;DHT22;39789;53.216;5.624;2023-04-15T03:48:20;5.40;99.90
53876;DHT22;39789;53.216;5.624;2023-04-15T03:50:46;5.40;99.90
53876;DHT22;39789;53.216;5.624;2023-04-15T03:53:12;5.30;99.90
53876;DHT22;39789;53.216;5.624;2023-04-15T03:55:38;5.30;99.90
53876;DHT22;39789;53.216;5.624;2023-04-15T03:58:04;5.30;99.90
53876;DHT22;39789;53.216;5.624;2023-04-15T04:00:31;5.30;99.90
53876;DHT22;39789;53.216;5.624;2023-04-15T04:02:56;5.30;99.90
53876;DHT22;39789;53.216;5.624;2023-04-15T04:05:22;5.30;99.90
53876;DHT22;39789;53.216;5.624;2023-04-15T04:07:48;5.20;99.90
53876;DHT22;39789;53.216;5.624;2023-04-15T04:10:13;5.10;99.90
53876;DHT22;39789;53.216;5.624;2023-04-15T04:12:39;5.00;99.90
53876;DHT22;39789;53.216;5.624;2023-04-15T04:15:05;4.90;99.90
53876;DHT22;39789;53.216;5.624;2023-04-15T04:17:31;4.80;99.90
53876;DHT22;39789;53.216;5.624;2023-04-15T04:19:57;4.80;99.90
53876;DHT22;39789;53.216;5.624;2023-04-15T04:22:23;4.70;99.90
53876;DHT22;39789;53.216;5.624;2023-04-15T04:24:49;4.70;99.90
53876;DHT22;39789;53.216;5.624;2023-04-15T04:27:15;4.70;99.90
53876;DHT22;39789;53.216;5.624;2023-04-15T04:29:40;4.80;99.90
53876;DHT22;39789;53.216;5.624;2023-04-15T04:32:06;4.80;99.90
53876;DHT22;39789;53.216;5.624;2023-04-15T04:34:31;4.80;99.90
53876;DHT22;39789;53.216;5.624;2023-04-15T04:36:57;4.90;99.90
53876;DHT22;39789;53.216;5.624;2023-04-15T04:39:23;4.90;99.90
53876;DHT22;39789;53.216;5.624;2023-04-15T04:41:49;4.80;99.90
53876;DHT22;39789;53.216;5.624;2023-04-15T04:44:16;4.80;99.90
53876;DHT22;39789;53.216;5.624;2023-04-15T04:46:42;4.80;99.90
53876;DHT22;39789;53.216;5.624;2023-04-15T04:49:07;4.70;99.90
53876;DHT22;39789;53.216;5.624;2023-04-15T04:51:33;4.70;99.90
53876;DHT22;39789;53.216;5.624;2023-04-15T04:53:58;4.60;99.90
53876;DHT22;39789;53.216;5.624;2023-04-15T04:56:24;4.50;99.90
53876;DHT22;39789;53.216;5.624;2023-04-15T04:58:50;4.50;99.90
53876;DHT22;39789;53.216;5.624;2023-04-15T05:01:16;4.50;99.90
53876;DHT22;39789;53.216;5.624;2023-04-15T05:03:41;4.50;99.90
53876;DHT22;39789;53.216;5.624;2023-04-15T05:06:07;4.60;99.90
53876;DHT22;39789;53.216;5.624;2023-04-15T05:08:33;4.70;99.90
53876;DHT22;39789;53.216;5.624;2023-04-15T05:10:58;4.80;99.90
53876;DHT22;39789;53.216;5.624;2023-04-15T05:13:25;5.00;99.90
53876;DHT22;39789;53.216;5.624;2023-04-15T05:15:50;5.20;99.90
53876;DHT22;39789;53.216;5.624;2023-04-15T05:18:16;5.20;99.90
53876;DHT22;39789;53.216;5.624;2023-04-15T05:20:41;5.30;99.90
53876;DHT22;39789;53.216;5.624;2023-04-15T05:23:07;5.30;99.90
53876;DHT22;39789;53.216;5.624;2023-04-15T05:25:33;5.40;99.90
53876;DHT22;39789;53.216;5.624;2023-04-15T05:27:58;5.60;99.90
53876;DHT22;39789;53.216;5.624;2023-04-15T05:30:24;5.90;99.90
53876;DHT22;39789;53.216;5.624;2023-04-15T05:32:51;6.10;99.90
53876;DHT22;39789;53.216;5.624;2023-04-15T05:35:16;6.20;99.90
53876;DHT22;39789;53.216;5.624;2023-04-15T05:37:42;6.50;99.90
53876;DHT22;39789;53.216;5.624;2023-04-15T05:40:08;6.80;99.90
53876;DHT22;39789;53.216;5.624;2023-04-15T05:42:35;7.00;99.90
53876;DHT22;39789;53.216;5.624;2023-04-15T05:45:00;7.10;99.90
53876;DHT22;39789;53.216;5.624;2023-04-15T05:47:29;7.20;99.90
53876;DHT22;39789;53.216;5.624;2023-04-15T05:49:55;7.10;99.90
53876;DHT22;39789;53.216;5.624;2023-04-15T05:52:21;7.00;99.90
53876;DHT22;39789;53.216;5.624;2023-04-15T05:54:46;7.00;99.90
53876;DHT22;39789;53.216;5.624;2023-04-15T05:57:12;7.10;99.90
53876;DHT22;39789;53.216;5.624;2023-04-15T05:59:37;7.20;99.90
53876;DHT22;39789;53.216;5.624;2023-04-15T06:02:03;7.40;99.90
53876;DHT22;39789;53.216;5.624;2023-04-15T06:04:29;7.50;99.90
53876;DHT22;39789;53.216;5.624;2023-04-15T06:06:54;7.60;99.90
53876;DHT22;39789;53.216;5.624;2023-04-15T06:09:20;7.50;99.90
53876;DHT22;39789;53.216;5.624;2023-04-15T06:11:45;7.40;99.90
53876;DHT22;39789;53.216;5.624;2023-04-15T06:14:11;7.40;99.90
53876;DHT22;39789;53.216;5.624;2023-04-15T06:16:37;7.50;99.90
53876;DHT22;39789;53.216;5.624;2023-04-15T06:19:02;7.50;99.90
53876;DHT22;39789;53.216;5.624;2023-04-15T06:21:29;7.50;99.90
53876;DHT22;39789;53.216;5.624;2023-04-15T06:23:55;7.70;99.90
53876;DHT22;39789;53.216;5.624;2023-04-15T06:26:21;7.90;99.90
53876;DHT22;39789;53.216;5.624;2023-04-15T06:28:46;8.20;99.90
53876;DHT22;39789;53.216;5.624;2023-04-15T06:31:12;8.40;99.90
53876;DHT22;39789;53.216;5.624;2023-04-15T06:33:37;8.60;99.90
53876;DHT22;39789;53.216;5.624;2023-04-15T06:36:04;8.80;99.90
53876;DHT22;39789;53.216;5.624;2023-04-15T06:38:30;9.00;99.90
53876;DHT22;39789;53.216;5.624;2023-04-15T06:40:55;9.10;99.90
53876;DHT22;39789;53.216;5.624;2023-04-15T06:43:21;9.10;99.90
53876;DHT22;39789;53.216;5.624;2023-04-15T06:45:46;9.20;99.90
53876;DHT22;39789;53.216;5.624;2023-04-15T06:48:12;9.20;99.90
53876;DHT22;39789;53.216;5.624;2023-04-15T06:50:38;9.20;99.90
53876;DHT22;39789;53.216;5.624;2023-04-15T06:53:03;9.20;99.90
53876;DHT22;39789;53.216;5.624;2023-04-15T06:55:29;9.10;99.90
53876;DHT22;39789;53.216;5.624;2023-04-15T06:57:55;9.20;99.90
53876;DHT22;39789;53.216;5.624;2023-04-15T07:00:21;9.10;99.90
53876;DHT22;39789;53.216;5.624;2023-04-15T07:02:47;9.20;99.90
53876;DHT22;39789;53.216;5.624;2023-04-15T07:05:15;9.10;99.90
53876;DHT22;39789;53.216;5.624;2023-04-15T07:07:40;9.10;99.90
53876;DHT22;39789;53.216;5.624;2023-04-15T07:10:07;9.20;99.90
53876;DHT22;39789;53.216;5.624;2023-04-15T07:12:32;9.20;99.90
53876;DHT22;39789;53.216;5.624;2023-04-15T07:14:58;9.20;99.90
53876;DHT22;39789;53.216;5.624;2023-04-15T07:17:23;9.20;99.90
53876;DHT22;39789;53.216;5.624;2023-04-15T07:19:49;9.20;99.90
53876;DHT22;39789;53.216;5.624;2023-04-15T07:22:15;9.20;99.90
53876;DHT22;39789;53.216;5.624;2023-04-15T07:24:41;9.10;99.90
53876;DHT22;39789;53.216;5.624;2023-04-15T07:27:07;9.20;99.90
53876;DHT22;39789;53.216;5.624;2023-04-15T07:29:34;9.20;99.90
53876;DHT22;39789;53.216;5.624;2023-04-15T07:32:00;9.20;99.90
53876;DHT22;39789;53.216;5.624;2023-04-15T07:34:27;8.50;99.90
53876;DHT22;39789;53.216;5.624;2023-04-15T07:36:53;9.30;99.90
53876;DHT22;39789;53.216;5.624;2023-04-15T07:39:18;9.30;99.90
53876;DHT22;39789;53.216;5.624;2023-04-15T07:41:44;9.40;99.90
53876;DHT22;39789;53.216;5.624;2023-04-15T07:44:11;9.40;99.90
53876;DHT22;39789;53.216;5.624;2023-04-15T07:46:37;9.50;99.90
53876;DHT22;39789;53.216;5.624;2023-04-15T07:49:03;9.60;99.90
53876;DHT22;39789;53.216;5.624;2023-04-15T07:51:28;9.70;99.90
53876;DHT22;39789;53.216;5.624;2023-04-15T07:53:55;9.70;99.90
53876;DHT22;39789;53.216;5.624;2023-04-15T07:56:20;9.70;99.90
53876;DHT22;39789;53.216;5.624;2023-04-15T07:58:46;9.90;99.90
53876;DHT22;39789;53.216;5.624;2023-04-15T08:01:12;9.90;99.90
53876;DHT22;39789;53.216;5.624;2023-04-15T08:03:38;9.90;99.90
53876;DHT22;39789;53.216;5.624;2023-04-15T08:06:03;9.90;99.90
53876;DHT22;39789;53.216;5.624;2023-04-15T08:08:29;9.90;99.90
53876;DHT22;39789;53.216;5.624;2023-04-15T08:10:55;10.00;99.90
53876;DHT22;39789;53.216;5.624;2023-04-15T08:13:21;10.10;99.90
53876;DHT22;39789;53.216;5.624;2023-04-15T08:18:37;10.40;99.90
53876;DHT22;39789;53.216;5.624;2023-04-15T08:21:03;10.40;99.90
53876;DHT22;39789;53.216;5.624;2023-04-15T08:23:29;10.40;99.90
53876;DHT22;39789;53.216;5.624;2023-04-15T08:25:54;10.50;99.90
53876;DHT22;39789;53.216;5.624;2023-04-15T08:28:20;10.50;99.90
53876;DHT22;39789;53.216;5.624;2023-04-15T08:30:45;10.50;99.90
53876;DHT22;39789;53.216;5.624;2023-04-15T08:33:11;10.50;99.90
53876;DHT22;39789;53.216;5.624;2023-04-15T08:35:37;10.60;99.90
53876;DHT22;39789;53.216;5.624;2023-04-15T08:38:03;10.60;99.90
53876;DHT22;39789;53.216;5.624;2023-04-15T08:40:35;10.50;99.90
53876;DHT22;39789;53.216;5.624;2023-04-15T08:43:10;10.60;99.90
53876;DHT22;39789;53.216;5.624;2023-04-15T08:45:38;10.70;99.90
53876;DHT22;39789;53.216;5.624;2023-04-15T08:48:04;10.70;99.90
53876;DHT22;39789;53.216;5.624;2023-04-15T08:50:31;10.80;99.90
53876;DHT22;39789;53.216;5.624;2023-04-15T08:52:58;10.80;99.90
53876;DHT22;39789;53.216;5.624;2023-04-15T08:55:29;10.80;99.90
53876;DHT22;39789;53.216;5.624;2023-04-15T08:57:58;10.70;99.90
53876;DHT22;39789;53.216;5.624;2023-04-15T09:00:24;10.70;99.90
53876;DHT22;39789;53.216;5.624;2023-04-15T09:02:50;10.70;99.90
53876;DHT22;39789;53.216;5.624;2023-04-15T09:05:16;10.70;99.90
53876;DHT22;39789;53.216;5.624;2023-04-15T09:07:42;10.60;99.90
53876;DHT22;39789;53.216;5.624;2023-04-15T09:10:08;10.50;99.90
53876;DHT22;39789;53.216;5.624;2023-04-15T09:12:34;10.40;99.90
53876;DHT22;39789;53.216;5.624;2023-04-15T09:15:01;10.40;99.90
53876;DHT22;39789;53.216;5.624;2023-04-15T09:17:27;10.40;99.90
53876;DHT22;39789;53.216;5.624;2023-04-15T09:20:10;10.40;99.90
53876;DHT22;39789;53.216;5.624;2023-04-15T09:22:38;10.60;99.90
53876;DHT22;39789;53.216;5.624;2023-04-15T09:25:24;10.60;99.90
53876;DHT22;39789;53.216;5.624;2023-04-15T09:28:01;10.50;99.90
53876;DHT22;39789;53.216;5.624;2023-04-15T09:30:28;10.50;99.90
53876;DHT22;39789;53.216;5.624;2023-04-15T09:32:56;10.40;99.90
53876;DHT22;39789;53.216;5.624;2023-04-15T09:35:23;10.40;99.90
53876;DHT22;39789;53.216;5.624;2023-04-15T09:37:49;10.40;99.90
53876;DHT22;39789;53.216;5.624;2023-04-15T09:40:34;10.40;99.90
53876;DHT22;39789;53.216;5.624;2023-04-15T09:42:59;10.60;99.90
53876;DHT22;39789;53.216;5.624;2023-04-15T09:45:26;10.70;99.90
53876;DHT22;39789;53.216;5.624;2023-04-15T09:47:52;10.70;99.90
53876;DHT22;39789;53.216;5.624;2023-04-15T09:50:18;10.70;99.90
53876;DHT22;39789;53.216;5.624;2023-04-15T09:52:45;10.70;99.90
53876;DHT22;39789;53.216;5.624;2023-04-15T09:55:12;10.60;99.90
53876;DHT22;39789;53.216;5.624;2023-04-15T09:57:39;10.60;99.90
53876;DHT22;39789;53.216;5.624;2023-04-15T10:00:07;10.70;99.90
53876;DHT22;39789;53.216;5.624;2023-04-15T10:02:37;10.70;99.90
53876;DHT22;39789;53.216;5.624;2023-04-15T10:05:04;10.80;99.90
53876;DHT22;39789;53.216;5.624;2023-04-15T10:07:31;10.80;99.90
53876;DHT22;39789;53.216;5.624;2023-04-15T10:09:59;10.80;99.90
53876;DHT22;39789;53.216;5.624;2023-04-15T10:12:26;10.80;99.90
53876;DHT22;39789;53.216;5.624;2023-04-15T10:14:58;10.80;99.90
53876;DHT22;39789;53.216;5.624;2023-04-15T10:17:27;10.80;99.90
53876;DHT22;39789;53.216;5.624;2023-04-15T10:19:54;10.70;99.90
53876;DHT22;39789;53.216;5.624;2023-04-15T10:22:21;10.70;99.90
53876;DHT22;39789;53.216;5.624;2023-04-15T10:24:48;10.90;99.90
53876;DHT22;39789;53.216;5.624;2023-04-15T10:27:16;11.00;99.90
53876;DHT22;39789;53.216;5.624;2023-04-15T10:29:42;11.00;99.90
53876;DHT22;39789;53.216;5.624;2023-04-15T10:32:08;11.00;99.90
53876;DHT22;39789;53.216;5.624;2023-04-15T10:34:35;11.10;99.90
53876;DHT22;39789;53.216;5.624;2023-04-15T10:37:01;11.20;99.90
53876;DHT22;39789;53.216;5.624;2023-04-15T10:39:40;11.20;99.90
53876;DHT22;39789;53.216;5.624;2023-04-15T10:42:14;11.20;99.90
53876;DHT22;39789;53.216;5.624;2023-04-15T10:44:48;11.10;99.90
53876;DHT22;39789;53.216;5.624;2023-04-15T10:47:16;11.00;99.90
53876;DHT22;39789;53.216;5.624;2023-04-15T10:50:00;10.90;99.90
53876;DHT22;39789;53.216;5.624;2023-04-15T10:52:27;10.80;99.90
53876;DHT22;39789;53.216;5.624;2023-04-15T10:55:11;10.80;99.90
53876;DHT22;39789;53.216;5.624;2023-04-15T10:57:38;10.80;99.90
53876;DHT22;39789;53.216;5.624;2023-04-15T11:02:41;10.80;99.90
53876;DHT22;39789;53.216;5.624;2023-04-15T11:05:08;10.70;99.90
53876;DHT22;39789;53.216;5.624;2023-04-15T11:07:41;10.70;99.90
53876;DHT22;39789;53.216;5.624;2023-04-15T11:12:38;10.50;99.90
53876;DHT22;39789;53.216;5.624;2023-04-15T11:15:27;10.50;99.90
53876;DHT22;39789;53.216;5.624;2023-04-15T11:18:20;10.40;99.90
53876;DHT22;39789;53.216;5.624;2023-04-15T11:20:52;10.20;99.90
53876;DHT22;39789;53.216;5.624;2023-04-15T11:25:56;10.20;99.90
53876;DHT22;39789;53.216;5.624;2023-04-15T11:28:27;10.30;99.90
53876;DHT22;39789;53.216;5.624;2023-04-15T11:30:54;10.30;99.90
53876;DHT22;39789;53.216;5.624;2023-04-15T11:33:21;10.30;99.90
53876;DHT22;39789;53.216;5.624;2023-04-15T11:35:48;10.30;99.90
53876;DHT22;39789;53.216;5.624;2023-04-15T11:38:14;10.30;99.90
53876;DHT22;39789;53.216;5.624;2023-04-15T11:40:42;10.30;99.90
53876;DHT22;39789;53.216;5.624;2023-04-15T11:43:16;10.30;99.90
53876;DHT22;39789;53.216;5.624;2023-04-15T11:45:57;10.40;99.90
53876;DHT22;39789;53.216;5.624;2023-04-15T11:48:25;10.40;99.90
53876;DHT22;39789;53.216;5.624;2023-04-15T11:51:05;10.40;99.90
53876;DHT22;39789;53.216;5.624;2023-04-15T11:53:44;10.60;99.90
53876;DHT22;39789;53.216;5.624;2023-04-15T11:56:18;10.30;99.90
53876;DHT22;39789;53.216;5.624;2023-04-15T11:58:45;10.30;99.90
53876;DHT22;39789;53.216;5.624;2023-04-15T12:01:12;10.30;99.90
53876;DHT22;39789;53.216;5.624;2023-04-15T12:03:40;10.30;99.90
53876;DHT22;39789;53.216;5.624;2023-04-15T12:06:21;10.40;99.90
53876;DHT22;39789;53.216;5.624;2023-04-15T12:09:13;10.50;99.90
53876;DHT22;39789;53.216;5.624;2023-04-15T12:11:44;10.50;99.90
53876;DHT22;39789;53.216;5.624;2023-04-15T12:14:12;10.40;99.90
53876;DHT22;39789;53.216;5.624;2023-04-15T12:16:55;10.30;99.90
53876;DHT22;39789;53.216;5.624;2023-04-15T12:21:48;10.10;99.90
53876;DHT22;39789;53.216;5.624;2023-04-15T12:24:14;10.00;99.90
53876;DHT22;39789;53.216;5.624;2023-04-15T12:26:54;10.00;99.90
53876;DHT22;39789;53.216;5.624;2023-04-15T12:29:29;10.00;99.90
53876;DHT22;39789;53.216;5.624;2023-04-15T12:31:56;9.90;99.90
53876;DHT22;39789;53.216;5.624;2023-04-15T12:34:33;10.00;99.90
53876;DHT22;39789;53.216;5.624;2023-04-15T12:37:01;10.00;99.90
53876;DHT22;39789;53.216;5.624;2023-04-15T12:39:29;9.90;99.90
53876;DHT22;39789;53.216;5.624;2023-04-15T12:41:55;9.90;99.90
53876;DHT22;39789;53.216;5.624;2023-04-15T12:44:22;9.80;99.90
53876;DHT22;39789;53.216;5.624;2023-04-15T12:46:49;9.80;99.90
53876;DHT22;39789;53.216;5.624;2023-04-15T12:49:15;9.80;99.90
53876;DHT22;39789;53.216;5.624;2023-04-15T12:51:43;9.70;99.90
53876;DHT22;39789;53.216;5.624;2023-04-15T12:54:09;9.60;99.90
53876;DHT22;39789;53.216;5.624;2023-04-15T12:56:34;9.60;99.90
53876;DHT22;39789;53.216;5.624;2023-04-15T12:59:00;9.50;99.90
53876;DHT22;39789;53.216;5.624;2023-04-15T13:01:26;9.40;99.90
53876;DHT22;39789;53.216;5.624;2023-04-15T13:03:51;9.40;99.90
53876;DHT22;39789;53.216;5.624;2023-04-15T13:06:19;9.30;99.90
53876;DHT22;39789;53.216;5.624;2023-04-15T13:08:45;9.30;99.90
53876;DHT22;39789;53.216;5.624;2023-04-15T13:11:11;9.30;99.90
53876;DHT22;39789;53.216;5.624;2023-04-15T13:13:36;9.30;99.90
53876;DHT22;39789;53.216;5.624;2023-04-15T13:16:02;9.40;99.90
53876;DHT22;39789;53.216;5.624;2023-04-15T13:18:28;9.40;99.90
53876;DHT22;39789;53.216;5.624;2023-04-15T13:20:55;9.30;99.90
53876;DHT22;39789;53.216;5.624;2023-04-15T13:23:21;9.30;99.90
53876;DHT22;39789;53.216;5.624;2023-04-15T13:25:47;9.30;99.90
53876;DHT22;39789;53.216;5.624;2023-04-15T13:28:12;9.30;99.90
53876;DHT22;39789;53.216;5.624;2023-04-15T13:30:38;9.30;99.90
53876;DHT22;39789;53.216;5.624;2023-04-15T13:33:04;9.20;99.90
53876;DHT22;39789;53.216;5.624;2023-04-15T13:35:31;9.20;99.90
53876;DHT22;39789;53.216;5.624;2023-04-15T13:37:57;9.20;99.90
53876;DHT22;39789;53.216;5.624;2023-04-15T13:40:22;9.20;99.90
53876;DHT22;39789;53.216;5.624;2023-04-15T13:42:48;9.20;99.90
53876;DHT22;39789;53.216;5.624;2023-04-15T13:45:13;9.20;99.90
53876;DHT22;39789;53.216;5.624;2023-04-15T13:47:39;9.20;99.90
53876;DHT22;39789;53.216;5.624;2023-04-15T13:50:05;9.20;99.90
53876;DHT22;39789;53.216;5.624;2023-04-15T13:52:31;9.20;99.90
53876;DHT22;39789;53.216;5.624;2023-04-15T13:54:57;9.20;99.90
53876;DHT22;39789;53.216;5.624;2023-04-15T13:57:22;9.20;99.90
53876;DHT22;39789;53.216;5.624;2023-04-15T13:59:48;9.20;99.90
53876;DHT22;39789;53.216;5.624;2023-04-15T14:02:13;9.20;99.90
53876;DHT22;39789;53.216;5.624;2023-04-15T14:04:39;9.20;99.90
53876;DHT22;39789;53.216;5.624;2023-04-15T14:07:05;9.20;99.90
53876;DHT22;39789;53.216;5.624;2023-04-15T14:09:30;9.20;99.90
53876;DHT22;39789;53.216;5.624;2023-04-15T14:11:56;9.20;99.90
53876;DHT22;39789;53.216;5.624;2023-04-15T14:14:23;9.20;99.90
53876;DHT22;39789;53.216;5.624;2023-04-15T14:16:48;9.20;99.90
53876;DHT22;39789;53.216;5.624;2023-04-15T14:19:14;9.20;99.90
53876;DHT22;39789;53.216;5.624;2023-04-15T14:21:40;9.10;99.90
53876;DHT22;39789;53.216;5.624;2023-04-15T14:24:05;9.10;99.90
53876;DHT22;39789;53.216;5.624;2023-04-15T14:26:31;9.10;99.90
53876;DHT22;39789;53.216;5.624;2023-04-15T14:28:57;9.10;99.90
53876;DHT22;39789;53.216;5.624;2023-04-15T14:31:22;9.00;99.90
53876;DHT22;39789;53.216;5.624;2023-04-15T14:33:48;9.00;99.90
53876;DHT22;39789;53.216;5.624;2023-04-15T14:36:13;8.80;99.90
53876;DHT22;39789;53.216;5.624;2023-04-15T14:38:39;9.00;99.90
53876;DHT22;39789;53.216;5.624;2023-04-15T14:41:06;9.00;99.90
53876;DHT22;39789;53.216;5.624;2023-04-15T14:43:32;9.00;99.90
53876;DHT22;39789;53.216;5.624;2023-04-15T14:45:58;9.10;99.90
53876;DHT22;39789;53.216;5.624;2023-04-15T14:48:24;9.10;99.90
53876;DHT22;39789;53.216;5.624;2023-04-15T14:50:51;9.00;99.90
53876;DHT22;39789;53.216;5.624;2023-04-15T14:53:16;9.00;99.90
53876;DHT22;39789;53.216;5.624;2023-04-15T14:55:42;9.00;99.90
53876;DHT22;39789;53.216;5.624;2023-04-15T14:58:08;9.00;99.90
53876;DHT22;39789;53.216;5.624;2023-04-15T15:00:34;9.00;99.90
53876;DHT22;39789;53.216;5.624;2023-04-15T15:03:00;9.10;99.90
53876;DHT22;39789;53.216;5.624;2023-04-15T15:05:26;9.00;99.90
53876;DHT22;39789;53.216;5.624;2023-04-15T15:07:52;8.90;99.90
53876;DHT22;39789;53.216;5.624;2023-04-15T15:10:17;9.00;99.90
53876;DHT22;39789;53.216;5.624;2023-04-15T15:12:43;9.00;99.90
53876;DHT22;39789;53.216;5.624;2023-04-15T15:15:08;9.00;99.90
53876;DHT22;39789;53.216;5.624;2023-04-15T15:17:35;9.10;99.90
53876;DHT22;39789;53.216;5.624;2023-04-15T15:20:00;9.20;99.90
53876;DHT22;39789;53.216;5.624;2023-04-15T15:22:27;9.20;99.90
53876;DHT22;39789;53.216;5.624;2023-04-15T15:24:53;9.20;99.90
53876;DHT22;39789;53.216;5.624;2023-04-15T15:27:19;9.10;99.90
53876;DHT22;39789;53.216;5.624;2023-04-15T15:29:44;9.20;99.90
53876;DHT22;39789;53.216;5.624;2023-04-15T15:32:10;9.20;99.90
53876;DHT22;39789;53.216;5.624;2023-04-15T15:34:35;9.30;99.90
53876;DHT22;39789;53.216;5.624;2023-04-15T15:37:01;9.30;99.90
53876;DHT22;39789;53.216;5.624;2023-04-15T15:39:27;9.30;99.90
53876;DHT22;39789;53.216;5.624;2023-04-15T15:41:52;9.30;99.90
53876;DHT22;39789;53.216;5.624;2023-04-15T15:44:18;9.30;99.90
53876;DHT22;39789;53.216;5.624;2023-04-15T15:46:43;9.30;99.90
53876;DHT22;39789;53.216;5.624;2023-04-15T15:49:10;9.20;99.90
53876;DHT22;39789;53.216;5.624;2023-04-15T15:51:35;9.20;99.90
53876;DHT22;39789;53.216;5.624;2023-04-15T15:54:01;9.10;99.90